sensor_id;sensor_type;location;lat;lon;timestamp;temperature;humidity
8313;DHT22;4194;43.408;24.626;2023-05-10T00:00:33;9.70;99.90
8313;DHT22;4194;43.408;24.626;2023-05-10T00:02:59;11.30;99.90
8313;DHT22;4194;43.408;24.626;2023-05-10T00:05:25;9.90;99.90
8313;DHT22;4194;43.408;24.626;2023-05-10T00:07:50;9.70;99.90
8313;DHT22;4194;43.408;24.626;2023-05-10T00:10:16;9.30;99.90
8313;DHT22;4194;43.408;24.626;2023-05-10T00:12:42;9.80;99.90
8313;DHT22;4194;43.408;24.626;2023-05-10T00:15:08;10.40;99.90
8313;DHT22;4194;43.408;24.626;2023-05-10T00:17:34;10.30;99.90
8313;DHT22;4194;43.408;24.626;2023-05-10T00:20:00;10.00;99.90
8313;DHT22;4194;43.408;24.626;2023-05-10T00:22:25;9.70;99.90
8313;DHT22;4194;43.408;24.626;2023-05-10T00:24:52;10.60;99.90
8313;DHT22;4194;43.408;24.626;2023-05-10T00:27:18;9.30;99.90
8313;DHT22;4194;43.408;24.626;2023-05-10T00:29:43;10.40;99.90
8313;DHT22;4194;43.408;24.626;2023-05-10T00:32:09;9.10;99.90
8313;DHT22;4194;43.408;24.626;2023-05-10T00:34:35;9.40;99.90
8313;DHT22;4194;43.408;24.626;2023-05-10T00:37:00;10.70;99.90
8313;DHT22;4194;43.408;24.626;2023-05-10T00:41:54;9.00;99.90
8313;DHT22;4194;43.408;24.626;2023-05-10T00:44:20;9.60;99.90
8313;DHT22;4194;43.408;24.626;2023-05-10T00:46:46;10.10;99.90
8313;DHT22;4194;43.408;24.626;2023-05-10T00:49:12;9.10;99.90
8313;DHT22;4194;43.408;24.626;2023-05-10T00:51:38;7.90;99.90
8313;DHT22;4194;43.408;24.626;2023-05-10T00:54:04;10.90;99.90
8313;DHT22;4194;43.408;24.626;2023-05-10T00:56:30;10.10;99.90
8313;DHT22;4194;43.408;24.626;2023-05-10T00:58:56;10.30;99.90
8313;DHT22;4194;43.408;24.626;2023-05-10T01:01:22;8.20;99.90
8313;DHT22;4194;43.408;24.626;2023-05-10T01:03:48;10.40;99.90
8313;DHT22;4194;43.408;24.626;2023-05-10T01:06:14;9.10;99.90
8313;DHT22;4194;43.408;24.626;2023-05-10T01:08:40;9.20;99.90
8313;DHT22;4194;43.408;24.626;2023-05-10T01:11:06;9.40;99.90
8313;DHT22;4194;43.408;24.626;2023-05-10T01:13:36;9.40;99.90
8313;DHT22;4194;43.408;24.626;2023-05-10T01:16:03;9.40;99.90
8313;DHT22;4194;43.408;24.626;2023-05-10T01:18:30;9.50;99.90
8313;DHT22;4194;43.408;24.626;2023-05-10T01:27:12;10.00;99.90
8313;DHT22;4194;43.408;24.626;2023-05-10T01:43:52;9.40;99.90
8313;DHT22;4194;43.408;24.626;2023-05-10T01:46:27;8.10;99.90
8313;DHT22;4194;43.408;24.626;2023-05-10T01:48:56;10.30;99.90
8313;DHT22;4194;43.408;24.626;2023-05-10T01:51:29;10.10;99.90
8313;DHT22;4194;43.408;24.626;2023-05-10T01:54:02;7.80;99.90
8313;DHT22;4194;43.408;24.626;2023-05-10T01:56:31;9.40;99.90
8313;DHT22;4194;43.408;24.626;2023-05-10T01:58:58;9.10;99.90
8313;DHT22;4194;43.408;24.626;2023-05-10T02:01:26;9.00;99.90
8313;DHT22;4194;43.408;24.626;2023-05-10T02:03:53;7.80;99.90
8313;DHT22;4194;43.408;24.626;2023-05-10T02:06:20;9.00;99.90
8313;DHT22;4194;43.408;24.626;2023-05-10T02:08:49;10.70;99.90
8313;DHT22;4194;43.408;24.626;2023-05-10T02:11:18;10.40;99.90
8313;DHT22;4194;43.408;24.626;2023-05-10T02:13:45;8.00;99.90
8313;DHT22;4194;43.408;24.626;2023-05-10T02:16:13;8.20;99.90
8313;DHT22;4194;43.408;24.626;2023-05-10T02:18:41;10.60;99.90
8313;DHT22;4194;43.408;24.626;2023-05-10T02:21:08;9.40;99.90
8313;DHT22;4194;43.408;24.626;2023-05-10T02:23:34;10.10;99.90
8313;DHT22;4194;43.408;24.626;2023-05-10T02:26:02;9.00;99.90
8313;DHT22;4194;43.408;24.626;2023-05-10T02:28:29;9.80;99.90
8313;DHT22;4194;43.408;24.626;2023-05-10T02:30:55;9.00;99.90
8313;DHT22;4194;43.408;24.626;2023-05-10T02:33:22;10.20;99.90
8313;DHT22;4194;43.408;24.626;2023-05-10T02:35:48;9.60;99.90
8313;DHT22;4194;43.408;24.626;2023-05-10T02:38:15;11.00;99.90
8313;DHT22;4194;43.408;24.626;2023-05-10T02:40:42;9.00;99.90
8313;DHT22;4194;43.408;24.626;2023-05-10T02:43:13;9.20;99.90
8313;DHT22;4194;43.408;24.626;2023-05-10T02:45:40;10.80;99.90
8313;DHT22;4194;43.408;24.626;2023-05-10T02:48:07;10.70;99.90
8313;DHT22;4194;43.408;24.626;2023-05-10T02:50:33;9.20;99.90
8313;DHT22;4194;43.408;24.626;2023-05-10T02:53:02;9.20;99.90
8313;DHT22;4194;43.408;24.626;2023-05-10T02:55:35;10.10;99.90
8313;DHT22;4194;43.408;24.626;2023-05-10T02:58:02;9.30;99.90
8313;DHT22;4194;43.408;24.626;2023-05-10T03:00:29;9.30;99.90
8313;DHT22;4194;43.408;24.626;2023-05-10T03:02:55;10.30;99.90
8313;DHT22;4194;43.408;24.626;2023-05-10T03:05:21;9.20;99.90
8313;DHT22;4194;43.408;24.626;2023-05-10T03:07:47;9.60;99.90
8313;DHT22;4194;43.408;24.626;2023-05-10T03:10:13;10.50;99.90
8313;DHT22;4194;43.408;24.626;2023-05-10T03:13:14;10.10;99.90
8313;DHT22;4194;43.408;24.626;2023-05-10T03:16:06;10.80;99.90
8313;DHT22;4194;43.408;24.626;2023-05-10T03:19:01;9.90;99.90
8313;DHT22;4194;43.408;24.626;2023-05-10T03:21:29;10.30;99.90
8313;DHT22;4194;43.408;24.626;2023-05-10T03:24:06;9.40;99.90
8313;DHT22;4194;43.408;24.626;2023-05-10T03:26:34;8.40;99.90
8313;DHT22;4194;43.408;24.626;2023-05-10T03:29:00;9.50;99.90
8313;DHT22;4194;43.408;24.626;2023-05-10T03:31:27;9.80;99.90
8313;DHT22;4194;43.408;24.626;2023-05-10T03:33:53;9.50;99.90
8313;DHT22;4194;43.408;24.626;2023-05-10T03:36:19;9.60;99.90
8313;DHT22;4194;43.408;24.626;2023-05-10T03:41:10;11.20;99.90
8313;DHT22;4194;43.408;24.626;2023-05-10T03:43:36;9.80;99.90
8313;DHT22;4194;43.408;24.626;2023-05-10T03:46:05;9.70;99.90
8313;DHT22;4194;43.408;24.626;2023-05-10T03:48:32;9.20;99.90
8313;DHT22;4194;43.408;24.626;2023-05-10T03:50:58;10.70;99.90
8313;DHT22;4194;43.408;24.626;2023-05-10T03:53:24;10.80;99.90
8313;DHT22;4194;43.408;24.626;2023-05-10T03:55:50;10.70;99.90
8313;DHT22;4194;43.408;24.626;2023-05-10T03:58:16;11.10;99.90
8313;DHT22;4194;43.408;24.626;2023-05-10T04:03:11;10.40;99.90
8313;DHT22;4194;43.408;24.626;2023-05-10T04:05:36;10.80;99.90
8313;DHT22;4194;43.408;24.626;2023-05-10T04:08:03;10.00;99.90
8313;DHT22;4194;43.408;24.626;2023-05-10T04:10:29;10.00;99.90
8313;DHT22;4194;43.408;24.626;2023-05-10T04:12:54;10.90;99.90
8313;DHT22;4194;43.408;24.626;2023-05-10T04:15:20;9.90;99.90
8313;DHT22;4194;43.408;24.626;2023-05-10T04:17:46;9.80;99.90
8313;DHT22;4194;43.408;24.626;2023-05-10T04:20:12;11.00;99.90
8313;DHT22;4194;43.408;24.626;2023-05-10T04:22:38;11.40;99.90
8313;DHT22;4194;43.408;24.626;2023-05-10T04:25:04;10.20;99.90
8313;DHT22;4194;43.408;24.626;2023-05-10T04:27:30;10.10;99.90
8313;DHT22;4194;43.408;24.626;2023-05-10T04:29:56;9.40;99.90
8313;DHT22;4194;43.408;24.626;2023-05-10T04:32:22;11.40;99.90
8313;DHT22;4194;43.408;24.626;2023-05-10T04:34:48;10.80;99.90
8313;DHT22;4194;43.408;24.626;2023-05-10T04:37:14;10.90;99.90
8313;DHT22;4194;43.408;24.626;2023-05-10T04:39:40;11.30;99.90
8313;DHT22;4194;43.408;24.626;2023-05-10T04:42:05;10.60;99.90
8313;DHT22;4194;43.408;24.626;2023-05-10T04:44:34;10.50;99.90
8313;DHT22;4194;43.408;24.626;2023-05-10T04:47:00;11.50;99.90
8313;DHT22;4194;43.408;24.626;2023-05-10T04:49:27;12.40;99.90
8313;DHT22;4194;43.408;24.626;2023-05-10T04:51:53;12.70;99.90
8313;DHT22;4194;43.408;24.626;2023-05-10T04:54:19;11.60;99.90
8313;DHT22;4194;43.408;24.626;2023-05-10T04:56:44;11.80;99.90
8313;DHT22;4194;43.408;24.626;2023-05-10T04:59:10;12.20;99.90
8313;DHT22;4194;43.408;24.626;2023-05-10T05:01:36;12.00;99.90
8313;DHT22;4194;43.408;24.626;2023-05-10T05:04:02;11.90;99.90
8313;DHT22;4194;43.408;24.626;2023-05-10T05:08:53;11.30;99.90
8313;DHT22;4194;43.408;24.626;2023-05-10T05:11:19;12.20;99.90
8313;DHT22;4194;43.408;24.626;2023-05-10T05:13:46;12.60;99.90
8313;DHT22;4194;43.408;24.626;2023-05-10T05:16:11;11.40;99.90
8313;DHT22;4194;43.408;24.626;2023-05-10T05:18:37;11.80;99.90
8313;DHT22;4194;43.408;24.626;2023-05-10T05:21:03;11.80;99.90
8313;DHT22;4194;43.408;24.626;2023-05-10T05:23:28;12.00;99.90
8313;DHT22;4194;43.408;24.626;2023-05-10T05:25:54;12.40;99.90
8313;DHT22;4194;43.408;24.626;2023-05-10T05:28:20;12.00;99.90
8313;DHT22;4194;43.408;24.626;2023-05-10T05:30:46;12.20;99.90
8313;DHT22;4194;43.408;24.626;2023-05-10T05:33:13;10.80;99.90
8313;DHT22;4194;43.408;24.626;2023-05-10T05:35:41;12.00;99.90
8313;DHT22;4194;43.408;24.626;2023-05-10T05:38:06;11.90;99.90
8313;DHT22;4194;43.408;24.626;2023-05-10T05:40:32;12.00;99.90
8313;DHT22;4194;43.408;24.626;2023-05-10T05:42:57;12.30;99.90
8313;DHT22;4194;43.408;24.626;2023-05-10T05:45:23;12.50;99.90
8313;DHT22;4194;43.408;24.626;2023-05-10T05:50:15;12.80;99.90
8313;DHT22;4194;43.408;24.626;2023-05-10T05:52:41;12.70;99.90
8313;DHT22;4194;43.408;24.626;2023-05-10T05:55:07;14.00;99.90
8313;DHT22;4194;43.408;24.626;2023-05-10T05:57:32;11.90;99.90
8313;DHT22;4194;43.408;24.626;2023-05-10T05:59:58;13.10;99.90
8313;DHT22;4194;43.408;24.626;2023-05-10T06:02:24;13.40;99.90
8313;DHT22;4194;43.408;24.626;2023-05-10T06:04:50;12.80;99.90
8313;DHT22;4194;43.408;24.626;2023-05-10T06:07:16;14.60;99.90
8313;DHT22;4194;43.408;24.626;2023-05-10T06:09:42;14.10;99.90
8313;DHT22;4194;43.408;24.626;2023-05-10T06:12:07;13.50;99.90
8313;DHT22;4194;43.408;24.626;2023-05-10T06:14:33;13.30;99.90
8313;DHT22;4194;43.408;24.626;2023-05-10T06:16:58;13.40;99.90
8313;DHT22;4194;43.408;24.626;2023-05-10T06:19:25;13.70;99.80
8313;DHT22;4194;43.408;24.626;2023-05-10T06:21:51;13.90;98.80
8313;DHT22;4194;43.408;24.626;2023-05-10T06:24:17;13.90;95.80
8313;DHT22;4194;43.408;24.626;2023-05-10T06:26:43;14.50;94.10
8313;DHT22;4194;43.408;24.626;2023-05-10T06:29:08;14.50;94.30
8313;DHT22;4194;43.408;24.626;2023-05-10T06:31:34;15.20;93.30
8313;DHT22;4194;43.408;24.626;2023-05-10T06:34:00;14.30;92.50
8313;DHT22;4194;43.408;24.626;2023-05-10T06:36:26;14.50;92.90
8313;DHT22;4194;43.408;24.626;2023-05-10T06:38:52;14.10;93.50
8313;DHT22;4194;43.408;24.626;2023-05-10T06:41:18;14.70;94.40
8313;DHT22;4194;43.408;24.626;2023-05-10T06:43:43;13.80;93.80
8313;DHT22;4194;43.408;24.626;2023-05-10T06:46:09;14.60;94.30
8313;DHT22;4194;43.408;24.626;2023-05-10T06:48:35;14.40;93.00
8313;DHT22;4194;43.408;24.626;2023-05-10T06:51:01;14.00;91.50
8313;DHT22;4194;43.408;24.626;2023-05-10T06:53:27;14.60;91.20
8313;DHT22;4194;43.408;24.626;2023-05-10T06:55:53;14.60;91.40
8313;DHT22;4194;43.408;24.626;2023-05-10T06:58:18;14.90;90.90
8313;DHT22;4194;43.408;24.626;2023-05-10T07:00:44;14.60;90.60
8313;DHT22;4194;43.408;24.626;2023-05-10T07:03:10;15.10;91.10
8313;DHT22;4194;43.408;24.626;2023-05-10T07:05:36;15.20;90.00
8313;DHT22;4194;43.408;24.626;2023-05-10T07:08:02;16.10;88.50
8313;DHT22;4194;43.408;24.626;2023-05-10T07:10:27;15.10;89.20
8313;DHT22;4194;43.408;24.626;2023-05-10T07:12:53;15.20;90.20
8313;DHT22;4194;43.408;24.626;2023-05-10T07:17:45;15.10;90.60
8313;DHT22;4194;43.408;24.626;2023-05-10T07:20:11;15.10;88.20
8313;DHT22;4194;43.408;24.626;2023-05-10T07:22:37;15.90;86.10
8313;DHT22;4194;43.408;24.626;2023-05-10T07:25:03;15.10;84.60
8313;DHT22;4194;43.408;24.626;2023-05-10T07:27:39;14.90;84.50
8313;DHT22;4194;43.408;24.626;2023-05-10T07:30:05;14.40;82.50
8313;DHT22;4194;43.408;24.626;2023-05-10T07:32:31;17.10;84.80
8313;DHT22;4194;43.408;24.626;2023-05-10T07:34:56;15.70;84.30
8313;DHT22;4194;43.408;24.626;2023-05-10T07:37:22;16.20;80.70
8313;DHT22;4194;43.408;24.626;2023-05-10T07:39:48;16.60;80.00
8313;DHT22;4194;43.408;24.626;2023-05-10T07:42:13;16.70;80.20
8313;DHT22;4194;43.408;24.626;2023-05-10T07:44:39;17.90;81.20
8313;DHT22;4194;43.408;24.626;2023-05-10T07:47:05;16.50;79.50
8313;DHT22;4194;43.408;24.626;2023-05-10T07:49:30;17.00;80.10
8313;DHT22;4194;43.408;24.626;2023-05-10T07:51:56;16.50;77.90
8313;DHT22;4194;43.408;24.626;2023-05-10T07:54:21;17.40;79.60
8313;DHT22;4194;43.408;24.626;2023-05-10T07:59:17;16.00;80.60
8313;DHT22;4194;43.408;24.626;2023-05-10T08:01:43;18.00;81.30
8313;DHT22;4194;43.408;24.626;2023-05-10T08:04:09;16.00;78.80
8313;DHT22;4194;43.408;24.626;2023-05-10T08:06:35;16.10;79.70
8313;DHT22;4194;43.408;24.626;2023-05-10T08:09:00;18.20;79.70
8313;DHT22;4194;43.408;24.626;2023-05-10T08:11:26;17.70;78.40
8313;DHT22;4194;43.408;24.626;2023-05-10T08:13:55;18.30;78.60
8313;DHT22;4194;43.408;24.626;2023-05-10T08:18:47;17.90;73.10
8313;DHT22;4194;43.408;24.626;2023-05-10T08:21:16;17.80;71.60
8313;DHT22;4194;43.408;24.626;2023-05-10T08:23:42;17.60;72.80
8313;DHT22;4194;43.408;24.626;2023-05-10T08:26:09;18.60;71.40
8313;DHT22;4194;43.408;24.626;2023-05-10T08:28:34;19.00;71.20
8313;DHT22;4194;43.408;24.626;2023-05-10T08:31:00;19.20;70.40
8313;DHT22;4194;43.408;24.626;2023-05-10T08:33:26;19.10;68.40
8313;DHT22;4194;43.408;24.626;2023-05-10T08:35:51;18.90;68.10
8313;DHT22;4194;43.408;24.626;2023-05-10T08:38:18;19.00;67.50
8313;DHT22;4194;43.408;24.626;2023-05-10T08:40:44;18.90;66.80
8313;DHT22;4194;43.408;24.626;2023-05-10T08:43:11;19.00;67.30
8313;DHT22;4194;43.408;24.626;2023-05-10T08:45:41;19.30;67.20
8313;DHT22;4194;43.408;24.626;2023-05-10T08:48:08;18.80;68.10
8313;DHT22;4194;43.408;24.626;2023-05-10T08:50:38;18.40;65.50
8313;DHT22;4194;43.408;24.626;2023-05-10T08:53:10;17.30;66.10
8313;DHT22;4194;43.408;24.626;2023-05-10T08:55:36;18.10;67.50
8313;DHT22;4194;43.408;24.626;2023-05-10T08:58:07;17.50;68.10
8313;DHT22;4194;43.408;24.626;2023-05-10T09:00:33;17.90;66.50
8313;DHT22;4194;43.408;24.626;2023-05-10T09:02:59;18.60;66.30
8313;DHT22;4194;43.408;24.626;2023-05-10T09:05:25;18.50;64.50
8313;DHT22;4194;43.408;24.626;2023-05-10T09:07:51;19.00;64.60
8313;DHT22;4194;43.408;24.626;2023-05-10T09:10:17;18.40;64.30
8313;DHT22;4194;43.408;24.626;2023-05-10T09:12:44;19.60;65.50
8313;DHT22;4194;43.408;24.626;2023-05-10T09:15:11;19.50;64.80
8313;DHT22;4194;43.408;24.626;2023-05-10T09:17:40;19.60;62.90
8313;DHT22;4194;43.408;24.626;2023-05-10T09:20:06;18.70;61.60
8313;DHT22;4194;43.408;24.626;2023-05-10T09:22:33;20.00;60.70
8313;DHT22;4194;43.408;24.626;2023-05-10T09:25:09;20.70;62.60
8313;DHT22;4194;43.408;24.626;2023-05-10T09:27:36;20.40;61.20
8313;DHT22;4194;43.408;24.626;2023-05-10T09:30:02;20.30;60.40
8313;DHT22;4194;43.408;24.626;2023-05-10T09:35:10;21.50;60.30
8313;DHT22;4194;43.408;24.626;2023-05-10T09:37:38;20.20;60.40
8313;DHT22;4194;43.408;24.626;2023-05-10T09:40:28;20.30;61.00
8313;DHT22;4194;43.408;24.626;2023-05-10T09:45:24;20.70;58.50
8313;DHT22;4194;43.408;24.626;2023-05-10T09:50:15;20.90;59.00
8313;DHT22;4194;43.408;24.626;2023-05-10T09:52:49;21.40;58.30
8313;DHT22;4194;43.408;24.626;2023-05-10T09:55:16;21.00;58.30
8313;DHT22;4194;43.408;24.626;2023-05-10T09:57:42;20.40;57.60
8313;DHT22;4194;43.408;24.626;2023-05-10T10:00:08;21.40;59.10
8313;DHT22;4194;43.408;24.626;2023-05-10T10:02:39;20.80;59.50
8313;DHT22;4194;43.408;24.626;2023-05-10T10:05:06;19.60;56.30
8313;DHT22;4194;43.408;24.626;2023-05-10T10:07:32;21.00;56.00
8313;DHT22;4194;43.408;24.626;2023-05-10T10:09:58;21.10;58.40
8313;DHT22;4194;43.408;24.626;2023-05-10T10:12:25;21.70;58.40
8313;DHT22;4194;43.408;24.626;2023-05-10T10:14:51;21.90;58.30
8313;DHT22;4194;43.408;24.626;2023-05-10T10:17:17;21.10;58.80
8313;DHT22;4194;43.408;24.626;2023-05-10T10:19:43;21.00;56.60
8313;DHT22;4194;43.408;24.626;2023-05-10T10:22:10;22.20;56.30
8313;DHT22;4194;43.408;24.626;2023-05-10T10:24:38;23.00;57.00
8313;DHT22;4194;43.408;24.626;2023-05-10T10:35:29;23.20;53.40
8313;DHT22;4194;43.408;24.626;2023-05-10T10:37:55;24.10;53.80
8313;DHT22;4194;43.408;24.626;2023-05-10T10:40:32;24.20;52.80
8313;DHT22;4194;43.408;24.626;2023-05-10T10:43:25;23.20;52.00
8313;DHT22;4194;43.408;24.626;2023-05-10T10:46:16;23.80;53.70
8313;DHT22;4194;43.408;24.626;2023-05-10T10:48:52;24.30;54.70
8313;DHT22;4194;43.408;24.626;2023-05-10T10:51:40;22.60;52.00
8313;DHT22;4194;43.408;24.626;2023-05-10T10:54:28;22.70;50.50
8313;DHT22;4194;43.408;24.626;2023-05-10T10:57:14;24.30;50.50
8313;DHT22;4194;43.408;24.626;2023-05-10T10:59:43;23.50;50.10
8313;DHT22;4194;43.408;24.626;2023-05-10T11:02:09;23.80;49.50
8313;DHT22;4194;43.408;24.626;2023-05-10T11:04:42;23.70;48.80
8313;DHT22;4194;43.408;24.626;2023-05-10T11:07:18;23.80;49.70
8313;DHT22;4194;43.408;24.626;2023-05-10T11:09:46;24.40;48.70
8313;DHT22;4194;43.408;24.626;2023-05-10T11:12:12;24.60;49.70
8313;DHT22;4194;43.408;24.626;2023-05-10T11:14:38;24.90;48.30
8313;DHT22;4194;43.408;24.626;2023-05-10T11:17:26;24.20;46.70
8313;DHT22;4194;43.408;24.626;2023-05-10T11:22:53;24.40;46.60
8313;DHT22;4194;43.408;24.626;2023-05-10T11:25:20;24.70;48.20
8313;DHT22;4194;43.408;24.626;2023-05-10T11:27:47;24.40;47.50
8313;DHT22;4194;43.408;24.626;2023-05-10T11:30:14;26.00;49.20
8313;DHT22;4194;43.408;24.626;2023-05-10T11:32:40;25.20;46.60
8313;DHT22;4194;43.408;24.626;2023-05-10T11:35:10;25.90;45.00
8313;DHT22;4194;43.408;24.626;2023-05-10T11:40:04;26.70;45.50
8313;DHT22;4194;43.408;24.626;2023-05-10T11:42:30;26.70;44.10
8313;DHT22;4194;43.408;24.626;2023-05-10T11:44:56;25.90;44.60
8313;DHT22;4194;43.408;24.626;2023-05-10T11:47:22;26.10;43.90
8313;DHT22;4194;43.408;24.626;2023-05-10T11:49:48;26.40;45.10
8313;DHT22;4194;43.408;24.626;2023-05-10T11:52:14;25.80;45.70
8313;DHT22;4194;43.408;24.626;2023-05-10T11:54:51;25.50;44.80
8313;DHT22;4194;43.408;24.626;2023-05-10T11:57:20;27.10;44.20
8313;DHT22;4194;43.408;24.626;2023-05-10T11:59:47;26.60;45.00
8313;DHT22;4194;43.408;24.626;2023-05-10T12:02:16;26.80;44.60
8313;DHT22;4194;43.408;24.626;2023-05-10T12:04:41;26.60;41.30
8313;DHT22;4194;43.408;24.626;2023-05-10T12:07:07;26.60;42.90
8313;DHT22;4194;43.408;24.626;2023-05-10T12:09:33;27.50;42.90
8313;DHT22;4194;43.408;24.626;2023-05-10T12:11:58;26.60;41.30
8313;DHT22;4194;43.408;24.626;2023-05-10T12:14:24;27.70;41.20
8313;DHT22;4194;43.408;24.626;2023-05-10T12:16:50;27.90;40.20
8313;DHT22;4194;43.408;24.626;2023-05-10T12:19:19;29.10;40.10
8313;DHT22;4194;43.408;24.626;2023-05-10T12:21:48;29.00;39.80
8313;DHT22;4194;43.408;24.626;2023-05-10T12:24:14;28.20;40.30
8313;DHT22;4194;43.408;24.626;2023-05-10T12:26:43;28.90;40.00
8313;DHT22;4194;43.408;24.626;2023-05-10T12:29:14;27.60;39.20
8313;DHT22;4194;43.408;24.626;2023-05-10T12:34:29;27.70;40.60
8313;DHT22;4194;43.408;24.626;2023-05-10T12:36:55;26.10;42.50
8313;DHT22;4194;43.408;24.626;2023-05-10T12:39:21;25.50;41.70
8313;DHT22;4194;43.408;24.626;2023-05-10T12:41:47;26.40;42.40
8313;DHT22;4194;43.408;24.626;2023-05-10T12:46:38;26.60;41.20
8313;DHT22;4194;43.408;24.626;2023-05-10T12:49:04;25.40;42.00
8313;DHT22;4194;43.408;24.626;2023-05-10T12:51:30;26.40;43.50
8313;DHT22;4194;43.408;24.626;2023-05-10T12:53:56;27.60;42.50
8313;DHT22;4194;43.408;24.626;2023-05-10T12:56:22;28.60;42.80
8313;DHT22;4194;43.408;24.626;2023-05-10T12:58:47;28.20;41.40
8313;DHT22;4194;43.408;24.626;2023-05-10T13:01:14;28.90;41.20
8313;DHT22;4194;43.408;24.626;2023-05-10T13:03:40;27.50;41.50
8313;DHT22;4194;43.408;24.626;2023-05-10T13:06:06;26.20;42.10
8313;DHT22;4194;43.408;24.626;2023-05-10T13:08:32;27.60;42.50
8313;DHT22;4194;43.408;24.626;2023-05-10T13:10:59;26.90;41.50
8313;DHT22;4194;43.408;24.626;2023-05-10T13:13:25;26.80;43.50
8313;DHT22;4194;43.408;24.626;2023-05-10T13:15:51;26.90;43.50
8313;DHT22;4194;43.408;24.626;2023-05-10T13:18:17;27.70;41.80
8313;DHT22;4194;43.408;24.626;2023-05-10T13:20:43;27.90;40.00
8313;DHT22;4194;43.408;24.626;2023-05-10T13:23:10;29.30;39.90
8313;DHT22;4194;43.408;24.626;2023-05-10T13:25:35;29.30;37.40
8313;DHT22;4194;43.408;24.626;2023-05-10T13:28:01;29.60;36.60
8313;DHT22;4194;43.408;24.626;2023-05-10T13:30:27;28.90;37.80
8313;DHT22;4194;43.408;24.626;2023-05-10T13:32:54;28.70;39.90
8313;DHT22;4194;43.408;24.626;2023-05-10T13:35:20;26.60;40.20
8313;DHT22;4194;43.408;24.626;2023-05-10T13:37:45;28.50;40.50
8313;DHT22;4194;43.408;24.626;2023-05-10T13:40:11;31.70;38.50
8313;DHT22;4194;43.408;24.626;2023-05-10T13:42:37;32.60;35.40
8313;DHT22;4194;43.408;24.626;2023-05-10T13:45:03;31.70;36.60
8313;DHT22;4194;43.408;24.626;2023-05-10T13:47:29;31.00;37.70
8313;DHT22;4194;43.408;24.626;2023-05-10T13:52:21;29.80;38.00
8313;DHT22;4194;43.408;24.626;2023-05-10T13:54:47;28.90;38.60
8313;DHT22;4194;43.408;24.626;2023-05-10T13:57:12;28.70;40.50
8313;DHT22;4194;43.408;24.626;2023-05-10T13:59:39;27.90;40.00
8313;DHT22;4194;43.408;24.626;2023-05-10T14:02:05;27.10;41.10
8313;DHT22;4194;43.408;24.626;2023-05-10T14:06:57;26.60;43.90
8313;DHT22;4194;43.408;24.626;2023-05-10T14:09:23;26.30;44.30
8313;DHT22;4194;43.408;24.626;2023-05-10T14:11:49;25.30;45.40
8313;DHT22;4194;43.408;24.626;2023-05-10T14:14:14;24.20;46.40
8313;DHT22;4194;43.408;24.626;2023-05-10T14:16:44;23.80;46.20
8313;DHT22;4194;43.408;24.626;2023-05-10T14:19:10;22.30;45.90
8313;DHT22;4194;43.408;24.626;2023-05-10T14:21:36;23.80;49.00
8313;DHT22;4194;43.408;24.626;2023-05-10T14:26:28;24.30;46.90
8313;DHT22;4194;43.408;24.626;2023-05-10T14:28:54;25.70;45.80
8313;DHT22;4194;43.408;24.626;2023-05-10T14:31:19;26.20;45.00
8313;DHT22;4194;43.408;24.626;2023-05-10T14:33:46;25.30;44.60
8313;DHT22;4194;43.408;24.626;2023-05-10T14:36:12;25.60;45.20
8313;DHT22;4194;43.408;24.626;2023-05-10T14:38:39;25.10;44.20
8313;DHT22;4194;43.408;24.626;2023-05-10T14:41:04;26.20;44.00
8313;DHT22;4194;43.408;24.626;2023-05-10T14:45:56;25.10;45.80
8313;DHT22;4194;43.408;24.626;2023-05-10T14:48:22;24.00;46.50
8313;DHT22;4194;43.408;24.626;2023-05-10T14:53:15;21.60;48.30
8313;DHT22;4194;43.408;24.626;2023-05-10T14:55:41;22.10;49.90
8313;DHT22;4194;43.408;24.626;2023-05-10T14:58:06;22.60;51.80
8313;DHT22;4194;43.408;24.626;2023-05-10T15:02:58;20.40;52.50
8313;DHT22;4194;43.408;24.626;2023-05-10T15:05:24;20.50;53.00
8313;DHT22;4194;43.408;24.626;2023-05-10T15:07:49;21.40;52.60
8313;DHT22;4194;43.408;24.626;2023-05-10T15:10:18;20.70;52.80
8313;DHT22;4194;43.408;24.626;2023-05-10T15:12:43;20.70;53.00
8313;DHT22;4194;43.408;24.626;2023-05-10T15:15:09;21.80;53.00
8313;DHT22;4194;43.408;24.626;2023-05-10T15:17:35;20.30;52.30
8313;DHT22;4194;43.408;24.626;2023-05-10T15:20:01;20.10;52.70
8313;DHT22;4194;43.408;24.626;2023-05-10T15:22:29;20.60;54.10
8313;DHT22;4194;43.408;24.626;2023-05-10T15:24:55;20.30;54.00
8313;DHT22;4194;43.408;24.626;2023-05-10T15:32:13;20.10;55.50
8313;DHT22;4194;43.408;24.626;2023-05-10T15:34:38;20.00;55.00
8313;DHT22;4194;43.408;24.626;2023-05-10T15:37:04;19.60;54.90
8313;DHT22;4194;43.408;24.626;2023-05-10T15:39:30;19.90;54.80
8313;DHT22;4194;43.408;24.626;2023-05-10T15:41:55;19.40;55.30
8313;DHT22;4194;43.408;24.626;2023-05-10T15:44:21;19.30;55.60
8313;DHT22;4194;43.408;24.626;2023-05-10T15:46:47;20.20;57.10
8313;DHT22;4194;43.408;24.626;2023-05-10T15:49:12;18.90;55.70
8313;DHT22;4194;43.408;24.626;2023-05-10T15:51:38;19.20;56.30
8313;DHT22;4194;43.408;24.626;2023-05-10T15:54:04;20.00;57.20
8313;DHT22;4194;43.408;24.626;2023-05-10T15:56:32;19.30;56.50
8313;DHT22;4194;43.408;24.626;2023-05-10T15:58:58;20.00;57.50
8313;DHT22;4194;43.408;24.626;2023-05-10T16:01:24;19.30;56.30
8313;DHT22;4194;43.408;24.626;2023-05-10T16:03:50;19.20;56.90
8313;DHT22;4194;43.408;24.626;2023-05-10T16:06:16;19.50;57.20
8313;DHT22;4194;43.408;24.626;2023-05-10T16:08:41;19.20;56.70
8313;DHT22;4194;43.408;24.626;2023-05-10T16:11:07;19.50;56.70
8313;DHT22;4194;43.408;24.626;2023-05-10T16:13:33;18.90;56.20
8313;DHT22;4194;43.408;24.626;2023-05-10T16:15:59;20.50;56.80
8313;DHT22;4194;43.408;24.626;2023-05-10T16:18:26;19.90;56.20
8313;DHT22;4194;43.408;24.626;2023-05-10T16:20:52;20.60;56.80
8313;DHT22;4194;43.408;24.626;2023-05-10T16:25:44;19.70;57.20
8313;DHT22;4194;43.408;24.626;2023-05-10T16:28:10;19.30;56.80
8313;DHT22;4194;43.408;24.626;2023-05-10T16:30:35;19.40;57.60
8313;DHT22;4194;43.408;24.626;2023-05-10T16:33:02;18.40;57.90
8313;DHT22;4194;43.408;24.626;2023-05-10T16:35:28;19.10;58.60
8313;DHT22;4194;43.408;24.626;2023-05-10T16:37:54;19.00;59.20
8313;DHT22;4194;43.408;24.626;2023-05-10T16:42:46;18.50;59.40
8313;DHT22;4194;43.408;24.626;2023-05-10T16:45:12;18.90;60.10
8313;DHT22;4194;43.408;24.626;2023-05-10T16:47:38;18.50;60.80
8313;DHT22;4194;43.408;24.626;2023-05-10T16:50:05;18.00;60.90
8313;DHT22;4194;43.408;24.626;2023-05-10T16:52:33;18.00;61.40
8313;DHT22;4194;43.408;24.626;2023-05-10T16:54:59;17.70;61.40
8313;DHT22;4194;43.408;24.626;2023-05-10T16:57:25;17.00;61.60
8313;DHT22;4194;43.408;24.626;2023-05-10T16:59:51;18.10;63.10
8313;DHT22;4194;43.408;24.626;2023-05-10T17:02:18;16.40;61.90
8313;DHT22;4194;43.408;24.626;2023-05-10T17:09:46;17.70;64.80
8313;DHT22;4194;43.408;24.626;2023-05-10T17:12:12;17.90;65.40
8313;DHT22;4194;43.408;24.626;2023-05-10T17:14:38;17.00;64.80
8313;DHT22;4194;43.408;24.626;2023-05-10T17:17:04;18.20;66.50
8313;DHT22;4194;43.408;24.626;2023-05-10T17:19:30;15.90;65.00
8313;DHT22;4194;43.408;24.626;2023-05-10T17:21:55;16.40;66.00